sensor_id;sensor_type;location;lat;lon;timestamp;pressure;altitude;pressure_sealevel;temperature;humidity
60970;BME280;46841;48.938;9.502;2023-11-21T00:01:17;97941.34;;;6.81;92.09
60970;BME280;46841;48.938;9.502;2023-11-21T00:03:43;97942.09;;;6.77;92.17
60970;BME280;46841;48.938;9.502;2023-11-21T00:06:09;97943.91;;;6.78;92.52
60970;BME280;46841;48.938;9.502;2023-11-21T00:08:34;97937.59;;;6.75;92.83
60970;BME280;46841;48.938;9.502;2023-11-21T00:11:00;97935.81;;;6.74;92.82
60970;BME280;46841;48.938;9.502;2023-11-21T00:13:26;97931.41;;;6.74;92.89
60970;BME280;46841;48.938;9.502;2023-11-21T00:15:51;97939.47;;;6.77;93.33
60970;BME280;46841;48.938;9.502;2023-11-21T00:18:16;97933.19;;;6.75;93.15
60970;BME280;46841;48.938;9.502;2023-11-21T00:20:42;97933.47;;;6.84;93.34
60970;BME280;46841;48.938;9.502;2023-11-21T00:23:07;97931.69;;;6.83;93.11
60970;BME280;46841;48.938;9.502;2023-11-21T00:25:34;97934.28;;;6.82;92.70
60970;BME280;46841;48.938;9.502;2023-11-21T00:28:00;97932.44;;;6.79;92.24
60970;BME280;46841;48.938;9.502;2023-11-21T00:30:27;97931.22;;;6.97;90.26
60970;BME280;46841;48.938;9.502;2023-11-21T00:32:54;97930.81;;;6.84;91.37
60970;BME280;46841;48.938;9.502;2023-11-21T00:35:19;97929.03;;;6.83;91.50
60970;BME280;46841;48.938;9.502;2023-11-21T00:37:45;97933.75;;;6.93;91.02
60970;BME280;46841;48.938;9.502;2023-11-21T00:40:11;97922.25;;;6.93;90.72
60970;BME280;46841;48.938;9.502;2023-11-21T00:42:37;97925.19;;;7.02;90.42
60970;BME280;46841;48.938;9.502;2023-11-21T00:45:03;97919.75;;;6.98;90.89
60970;BME280;46841;48.938;9.502;2023-11-21T00:47:29;97917.69;;;7.17;89.27
60970;BME280;46841;48.938;9.502;2023-11-21T00:49:54;97919.22;;;7.09;89.98
60970;BME280;46841;48.938;9.502;2023-11-21T00:52:22;97922.41;;;6.98;90.65
60970;BME280;46841;48.938;9.502;2023-11-21T00:54:47;97926.84;;;6.99;91.16
60970;BME280;46841;48.938;9.502;2023-11-21T00:57:13;97931.31;;;7.00;91.43
60970;BME280;46841;48.938;9.502;2023-11-21T00:59:39;97926.00;;;7.00;91.66
60970;BME280;46841;48.938;9.502;2023-11-21T01:02:06;97918.94;;;7.00;91.80
60970;BME280;46841;48.938;9.502;2023-11-21T01:04:35;97927.94;;;7.05;90.59
60970;BME280;46841;48.938;9.502;2023-11-21T01:07:00;97924.41;;;7.05;91.63
60970;BME280;46841;48.938;9.502;2023-11-21T01:09:26;97919.22;;;7.09;91.65
60970;BME280;46841;48.938;9.502;2023-11-21T01:11:51;97922.84;;;7.13;91.51
60970;BME280;46841;48.938;9.502;2023-11-21T01:14:17;97925.22;;;7.04;91.75
60970;BME280;46841;48.938;9.502;2023-11-21T01:16:43;97919.25;;;7.11;92.38
60970;BME280;46841;48.938;9.502;2023-11-21T01:19:08;97919.13;;;7.06;92.26
60970;BME280;46841;48.938;9.502;2023-11-21T01:21:34;97913.00;;;7.09;91.81
60970;BME280;46841;48.938;9.502;2023-11-21T01:24:00;97907.13;;;7.19;91.47
60970;BME280;46841;48.938;9.502;2023-11-21T01:26:25;97918.50;;;7.15;91.55
60970;BME280;46841;48.938;9.502;2023-11-21T01:28:50;97920.16;;;7.11;91.96
60970;BME280;46841;48.938;9.502;2023-11-21T01:31:17;97917.59;;;7.14;92.41
60970;BME280;46841;48.938;9.502;2023-11-21T01:33:42;97914.81;;;7.10;91.94
60970;BME280;46841;48.938;9.502;2023-11-21T01:36:08;97915.78;;;7.13;92.32
60970;BME280;46841;48.938;9.502;2023-11-21T01:38:34;97915.56;;;7.06;92.69
60970;BME280;46841;48.938;9.502;2023-11-21T01:41:00;97919.09;;;7.05;92.81
60970;BME280;46841;48.938;9.502;2023-11-21T01:43:26;97923.69;;;7.12;92.36
60970;BME280;46841;48.938;9.502;2023-11-21T01:45:54;97923.75;;;7.13;92.43
60970;BME280;46841;48.938;9.502;2023-11-21T01:48:22;97914.97;;;7.14;92.27
60970;BME280;46841;48.938;9.502;2023-11-21T01:50:51;97916.72;;;7.14;92.20
60970;BME280;46841;48.938;9.502;2023-11-21T01:53:17;97918.19;;;7.04;92.97
60970;BME280;46841;48.938;9.502;2023-11-21T01:55:45;97918.41;;;7.12;93.17
60970;BME280;46841;48.938;9.502;2023-11-21T01:58:10;97922.03;;;7.14;93.12
60970;BME280;46841;48.938;9.502;2023-11-21T02:00:38;97919.25;;;7.11;93.00
60970;BME280;46841;48.938;9.502;2023-11-21T02:03:04;97917.47;;;7.10;93.34
60970;BME280;46841;48.938;9.502;2023-11-21T02:05:29;97921.06;;;7.12;93.45
60970;BME280;46841;48.938;9.502;2023-11-21T02:07:55;97924.00;;;7.23;93.23
60970;BME280;46841;48.938;9.502;2023-11-21T02:10:21;97924.78;;;7.18;93.33
60970;BME280;46841;48.938;9.502;2023-11-21T02:12:48;97925.44;;;7.10;93.56
60970;BME280;46841;48.938;9.502;2023-11-21T02:15:16;97927.19;;;7.09;93.51
60970;BME280;46841;48.938;9.502;2023-11-21T02:17:46;97929.13;;;7.15;93.30
60970;BME280;46841;48.938;9.502;2023-11-21T02:20:13;97922.78;;;7.10;93.50
60970;BME280;46841;48.938;9.502;2023-11-21T02:22:44;97922.03;;;7.14;93.48
60970;BME280;46841;48.938;9.502;2023-11-21T02:25:10;97920.19;;;7.13;92.76
60970;BME280;46841;48.938;9.502;2023-11-21T02:27:36;97916.75;;;7.15;92.00
60970;BME280;46841;48.938;9.502;2023-11-21T02:30:03;97908.75;;;7.14;92.39
60970;BME280;46841;48.938;9.502;2023-11-21T02:32:30;97907.88;;;7.15;92.09
60970;BME280;46841;48.938;9.502;2023-11-21T02:34:57;97906.03;;;7.12;92.90
60970;BME280;46841;48.938;9.502;2023-11-21T02:37:26;97907.81;;;7.13;93.02
60970;BME280;46841;48.938;9.502;2023-11-21T02:39:52;97911.41;;;7.14;92.73
60970;BME280;46841;48.938;9.502;2023-11-21T02:42:18;97905.28;;;7.16;93.11
60970;BME280;46841;48.938;9.502;2023-11-21T02:44:43;97899.19;;;7.19;93.21
60970;BME280;46841;48.938;9.502;2023-11-21T02:47:09;97904.47;;;7.19;93.36
60970;BME280;46841;48.938;9.502;2023-11-21T02:49:35;97905.50;;;7.24;93.43
60970;BME280;46841;48.938;9.502;2023-11-21T02:52:01;97904.66;;;7.25;93.35
60970;BME280;46841;48.938;9.502;2023-11-21T02:54:27;97900.81;;;7.15;93.46
60970;BME280;46841;48.938;9.502;2023-11-21T02:56:52;97904.38;;;7.16;93.80
60970;BME280;46841;48.938;9.502;2023-11-21T02:59:18;97894.66;;;7.16;93.70
60970;BME280;46841;48.938;9.502;2023-11-21T03:01:45;97901.91;;;7.22;93.95
60970;BME280;46841;48.938;9.502;2023-11-21T03:04:11;97910.53;;;7.15;93.22
60970;BME280;46841;48.938;9.502;2023-11-21T03:06:43;97905.44;;;7.23;93.77
60970;BME280;46841;48.938;9.502;2023-11-21T03:09:08;97911.47;;;7.17;93.65
60970;BME280;46841;48.938;9.502;2023-11-21T03:11:34;97912.31;;;7.14;93.33
60970;BME280;46841;48.938;9.502;2023-11-21T03:13:59;97914.88;;;7.13;93.74
60970;BME280;46841;48.938;9.502;2023-11-21T03:16:24;97915.09;;;7.19;94.00
60970;BME280;46841;48.938;9.502;2023-11-21T03:18:51;97913.38;;;7.21;93.96
60970;BME280;46841;48.938;9.502;2023-11-21T03:21:17;97909.69;;;7.16;93.91
60970;BME280;46841;48.938;9.502;2023-11-21T03:23:43;97913.19;;;7.15;93.86
60970;BME280;46841;48.938;9.502;2023-11-21T03:26:12;97918.50;;;7.15;94.65
60970;BME280;46841;48.938;9.502;2023-11-21T03:28:38;97915.09;;;7.19;94.29
60970;BME280;46841;48.938;9.502;2023-11-21T03:31:04;97916.13;;;7.24;94.22
60970;BME280;46841;48.938;9.502;2023-11-21T03:33:32;97910.94;;;7.29;94.29
60970;BME280;46841;48.938;9.502;2023-11-21T03:35:57;97911.84;;;7.29;93.87
60970;BME280;46841;48.938;9.502;2023-11-21T03:38:24;97913.50;;;7.26;94.02
60970;BME280;46841;48.938;9.502;2023-11-21T03:40:49;97913.47;;;7.24;93.98
60970;BME280;46841;48.938;9.502;2023-11-21T03:43:15;97914.66;;;7.35;93.70
60970;BME280;46841;48.938;9.502;2023-11-21T03:45:41;97917.31;;;7.35;93.62
60970;BME280;46841;48.938;9.502;2023-11-21T03:48:07;97909.34;;;7.35;93.72
60970;BME280;46841;48.938;9.502;2023-11-21T03:50:36;97914.53;;;7.31;93.71
60970;BME280;46841;48.938;9.502;2023-11-21T03:53:02;97907.69;;;7.39;93.21
60970;BME280;46841;48.938;9.502;2023-11-21T03:55:29;97913.91;;;7.39;93.27
60970;BME280;46841;48.938;9.502;2023-11-21T03:57:56;97918.34;;;7.40;93.23
60970;BME280;46841;48.938;9.502;2023-11-21T04:00:22;97924.41;;;7.36;92.93
60970;BME280;46841;48.938;9.502;2023-11-21T04:02:47;97933.06;;;7.29;93.48
60970;BME280;46841;48.938;9.502;2023-11-21T04:05:13;97934.84;;;7.30;93.66
60970;BME280;46841;48.938;9.502;2023-11-21T04:07:38;97920.47;;;7.22;93.73
60970;BME280;46841;48.938;9.502;2023-11-21T04:10:06;97929.38;;;7.24;94.09
60970;BME280;46841;48.938;9.502;2023-11-21T04:12:34;97918.66;;;7.21;94.18
60970;BME280;46841;48.938;9.502;2023-11-21T04:15:00;97920.28;;;7.16;94.24
60970;BME280;46841;48.938;9.502;2023-11-21T04:17:25;97926.50;;;7.16;94.47
60970;BME280;46841;48.938;9.502;2023-11-21T04:19:50;97923.69;;;7.12;94.55
60970;BME280;46841;48.938;9.502;2023-11-21T04:22:16;97924.69;;;7.15;94.46
60970;BME280;46841;48.938;9.502;2023-11-21T04:24:41;97925.59;;;7.16;94.71
60970;BME280;46841;48.938;9.502;2023-11-21T04:27:07;97926.41;;;7.13;94.53
60970;BME280;46841;48.938;9.502;2023-11-21T04:29:33;97921.16;;;7.15;94.22
60970;BME280;46841;48.938;9.502;2023-11-21T04:32:01;97933.53;;;7.14;94.43
60970;BME280;46841;48.938;9.502;2023-11-21T04:34:28;97929.00;;;7.12;94.55
60970;BME280;46841;48.938;9.502;2023-11-21T04:36:56;97932.53;;;7.11;94.69
60970;BME280;46841;48.938;9.502;2023-11-21T04:39:22;97932.63;;;7.14;94.48
60970;BME280;46841;48.938;9.502;2023-11-21T04:41:47;97937.94;;;7.14;94.67
60970;BME280;46841;48.938;9.502;2023-11-21T04:44:15;97927.38;;;7.17;94.72
60970;BME280;46841;48.938;9.502;2023-11-21T04:46:41;97929.97;;;7.14;94.61
60970;BME280;46841;48.938;9.502;2023-11-21T04:49:07;97936.94;;;7.10;94.68
60970;BME280;46841;48.938;9.502;2023-11-21T04:51:32;97936.09;;;7.13;94.26
60970;BME280;46841;48.938;9.502;2023-11-21T04:53:58;97927.56;;;7.23;94.47
60970;BME280;46841;48.938;9.502;2023-11-21T04:56:23;97932.25;;;7.32;94.22
60970;BME280;46841;48.938;9.502;2023-11-21T04:58:49;97929.44;;;7.27;94.35
60970;BME280;46841;48.938;9.502;2023-11-21T05:01:15;97943.44;;;7.22;94.22
60970;BME280;46841;48.938;9.502;2023-11-21T05:03:41;97936.34;;;7.20;94.31
60970;BME280;46841;48.938;9.502;2023-11-21T05:06:09;97951.09;;;7.11;94.36
60970;BME280;46841;48.938;9.502;2023-11-21T05:08:35;97947.63;;;7.13;94.90
60970;BME280;46841;48.938;9.502;2023-11-21T05:11:02;97943.28;;;7.15;94.43
60970;BME280;46841;48.938;9.502;2023-11-21T05:13:28;97946.81;;;7.16;94.79
60970;BME280;46841;48.938;9.502;2023-11-21T05:15:56;97945.81;;;7.12;95.01
60970;BME280;46841;48.938;9.502;2023-11-21T05:18:22;97949.34;;;7.11;94.54
60970;BME280;46841;48.938;9.502;2023-11-21T05:20:48;97959.84;;;7.08;94.44
60970;BME280;46841;48.938;9.502;2023-11-21T05:23:13;97955.34;;;7.06;94.32
60970;BME280;46841;48.938;9.502;2023-11-21T05:25:39;97958.91;;;7.06;94.34
60970;BME280;46841;48.938;9.502;2023-11-21T05:28:04;97963.66;;;7.18;94.14
60970;BME280;46841;48.938;9.502;2023-11-21T05:30:30;97962.84;;;7.19;94.30
60970;BME280;46841;48.938;9.502;2023-11-21T05:32:55;97964.69;;;7.23;94.56
60970;BME280;46841;48.938;9.502;2023-11-21T05:35:20;97973.25;;;7.13;94.39
60970;BME280;46841;48.938;9.502;2023-11-21T05:37:46;97979.41;;;7.12;93.92
60970;BME280;46841;48.938;9.502;2023-11-21T05:40:12;97978.47;;;7.10;93.75
60970;BME280;46841;48.938;9.502;2023-11-21T05:42:39;97983.78;;;7.10;93.78
60970;BME280;46841;48.938;9.502;2023-11-21T05:45:06;97984.59;;;7.09;93.37
60970;BME280;46841;48.938;9.502;2023-11-21T05:47:40;97982.78;;;7.06;93.33
60970;BME280;46841;48.938;9.502;2023-11-21T05:50:08;97983.78;;;7.10;93.81
60970;BME280;46841;48.938;9.502;2023-11-21T05:52:38;97989.09;;;7.10;94.14
60970;BME280;46841;48.938;9.502;2023-11-21T05:55:05;97983.81;;;7.11;93.88
60970;BME280;46841;48.938;9.502;2023-11-21T05:57:38;97988.38;;;7.15;93.77
60970;BME280;46841;48.938;9.502;2023-11-21T06:00:09;97991.75;;;7.10;93.66
60970;BME280;46841;48.938;9.502;2023-11-21T06:02:53;97985.56;;;7.11;93.69
60970;BME280;46841;48.938;9.502;2023-11-21T06:05:20;97999.69;;;7.10;93.99
60970;BME280;46841;48.938;9.502;2023-11-21T06:07:49;97991.75;;;7.10;93.97
60970;BME280;46841;48.938;9.502;2023-11-21T06:10:14;98003.97;;;7.05;94.30
60970;BME280;46841;48.938;9.502;2023-11-21T06:12:40;98004.91;;;7.07;94.21
60970;BME280;46841;48.938;9.502;2023-11-21T06:15:08;98003.19;;;7.09;94.34
60970;BME280;46841;48.938;9.502;2023-11-21T06:17:35;98006.53;;;7.03;94.88
60970;BME280;46841;48.938;9.502;2023-11-21T06:20:05;98010.09;;;7.04;94.46
60970;BME280;46841;48.938;9.502;2023-11-21T06:22:38;98010.09;;;7.04;94.50
60970;BME280;46841;48.938;9.502;2023-11-21T06:25:05;98012.22;;;7.14;94.82
60970;BME280;46841;48.938;9.502;2023-11-21T06:27:38;98015.66;;;7.11;94.54
60970;BME280;46841;48.938;9.502;2023-11-21T06:30:04;98015.91;;;7.19;94.63
60970;BME280;46841;48.938;9.502;2023-11-21T06:32:30;98016.88;;;7.23;94.56
60970;BME280;46841;48.938;9.502;2023-11-21T06:34:56;98027.69;;;7.29;94.31
60970;BME280;46841;48.938;9.502;2023-11-21T06:37:28;98018.72;;;7.25;94.22
60970;BME280;46841;48.938;9.502;2023-11-21T06:39:54;98025.66;;;7.20;94.43
60970;BME280;46841;48.938;9.502;2023-11-21T06:42:21;98027.41;;;7.19;94.39
60970;BME280;46841;48.938;9.502;2023-11-21T06:44:48;98028.19;;;7.17;94.42
60970;BME280;46841;48.938;9.502;2023-11-21T06:47:14;98030.66;;;7.11;94.19
60970;BME280;46841;48.938;9.502;2023-11-21T06:49:42;98038.66;;;7.12;94.35
60970;BME280;46841;48.938;9.502;2023-11-21T06:52:07;98032.56;;;7.15;94.30
60970;BME280;46841;48.938;9.502;2023-11-21T06:54:33;98032.72;;;7.19;94.22
60970;BME280;46841;48.938;9.502;2023-11-21T06:57:00;98032.59;;;7.16;94.37
60970;BME280;46841;48.938;9.502;2023-11-21T06:59:25;98035.41;;;7.21;94.83
60970;BME280;46841;48.938;9.502;2023-11-21T07:01:51;98040.31;;;7.37;94.23
60970;BME280;46841;48.938;9.502;2023-11-21T07:04:16;98043.78;;;7.35;93.95
60970;BME280;46841;48.938;9.502;2023-11-21T07:06:43;98050.16;;;7.41;93.61
60970;BME280;46841;48.938;9.502;2023-11-21T07:09:09;98058.09;;;7.40;93.90
60970;BME280;46841;48.938;9.502;2023-11-21T07:11:35;98058.00;;;7.37;93.56
60970;BME280;46841;48.938;9.502;2023-11-21T07:14:00;98058.97;;;7.39;93.96
60970;BME280;46841;48.938;9.502;2023-11-21T07:16:34;98070.53;;;7.42;93.82
60970;BME280;46841;48.938;9.502;2023-11-21T07:19:00;98063.53;;;7.44;93.91
60970;BME280;46841;48.938;9.502;2023-11-21T07:21:25;98067.00;;;7.42;93.10
60970;BME280;46841;48.938;9.502;2023-11-21T07:23:59;98061.78;;;7.45;93.15
60970;BME280;46841;48.938;9.502;2023-11-21T07:26:26;98070.34;;;7.65;93.06
60970;BME280;46841;48.938;9.502;2023-11-21T07:28:52;98063.63;;;7.76;92.50
60970;BME280;46841;48.938;9.502;2023-11-21T07:31:21;98063.84;;;7.85;92.47
60970;BME280;46841;48.938;9.502;2023-11-21T07:33:46;98071.16;;;7.92;91.79
60970;BME280;46841;48.938;9.502;2023-11-21T07:36:13;98069.44;;;7.94;91.18
60970;BME280;46841;48.938;9.502;2023-11-21T07:38:41;98082.72;;;7.94;90.78
60970;BME280;46841;48.938;9.502;2023-11-21T07:41:07;98081.94;;;7.98;90.92
60970;BME280;46841;48.938;9.502;2023-11-21T07:43:35;98080.69;;;8.16;89.86
60970;BME280;46841;48.938;9.502;2023-11-21T07:46:01;98082.03;;;8.00;90.52
60970;BME280;46841;48.938;9.502;2023-11-21T07:48:32;98084.00;;;8.09;90.63
60970;BME280;46841;48.938;9.502;2023-11-21T07:50:58;98090.34;;;8.14;90.40
60970;BME280;46841;48.938;9.502;2023-11-21T07:53:24;98087.81;;;8.18;90.02
60970;BME280;46841;48.938;9.502;2023-11-21T07:55:51;98100.06;;;8.12;89.65
60970;BME280;46841;48.938;9.502;2023-11-21T07:58:17;98101.06;;;8.15;89.79
60970;BME280;46841;48.938;9.502;2023-11-21T08:00:43;98102.97;;;8.21;89.89
60970;BME280;46841;48.938;9.502;2023-11-21T08:03:09;98103.47;;;8.08;90.46
60970;BME280;46841;48.938;9.502;2023-11-21T08:05:34;98105.34;;;8.10;90.45
60970;BME280;46841;48.938;9.502;2023-11-21T08:08:01;98104.50;;;8.13;90.30
60970;BME280;46841;48.938;9.502;2023-11-21T08:10:26;98103.56;;;8.11;90.91
60970;BME280;46841;48.938;9.502;2023-11-21T08:12:51;98108.16;;;8.16;90.66
60970;BME280;46841;48.938;9.502;2023-11-21T08:15:19;98108.25;;;8.19;89.66
60970;BME280;46841;48.938;9.502;2023-11-21T08:17:46;98110.69;;;8.12;89.81
60970;BME280;46841;48.938;9.502;2023-11-21T08:20:12;98114.13;;;8.09;90.08
60970;BME280;46841;48.938;9.502;2023-11-21T08:22:37;98116.91;;;8.14;90.14
60970;BME280;46841;48.938;9.502;2023-11-21T08:25:06;98115.50;;;8.25;89.74
60970;BME280;46841;48.938;9.502;2023-11-21T08:27:33;98115.69;;;8.33;89.85
60970;BME280;46841;48.938;9.502;2023-11-21T08:30:03;98112.22;;;8.35;89.45
60970;BME280;46841;48.938;9.502;2023-11-21T08:32:29;98110.94;;;8.53;89.19
60970;BME280;46841;48.938;9.502;2023-11-21T08:34:57;98115.56;;;8.58;88.83
60970;BME280;46841;48.938;9.502;2023-11-21T08:37:23;98106.84;;;8.64;88.49
60970;BME280;46841;48.938;9.502;2023-11-21T08:39:49;98117.72;;;8.73;87.85
60970;BME280;46841;48.938;9.502;2023-11-21T08:42:14;98121.41;;;8.78;87.39
60970;BME280;46841;48.938;9.502;2023-11-21T08:44:40;98118.03;;;8.85;87.14
60970;BME280;46841;48.938;9.502;2023-11-21T08:47:06;98113.72;;;8.90;87.37
60970;BME280;46841;48.938;9.502;2023-11-21T08:49:32;98121.41;;;8.78;86.13
60970;BME280;46841;48.938;9.502;2023-11-21T08:51:58;98119.50;;;9.07;84.92
60970;BME280;46841;48.938;9.502;2023-11-21T08:54:25;98121.66;;;9.23;84.31
60970;BME280;46841;48.938;9.502;2023-11-21T08:56:52;98115.44;;;9.59;82.43
60970;BME280;46841;48.938;9.502;2023-11-21T08:59:17;98130.66;;;9.66;81.82
60970;BME280;46841;48.938;9.502;2023-11-21T09:01:42;98129.09;;;9.74;81.84
60970;BME280;46841;48.938;9.502;2023-11-21T09:04:08;98128.94;;;10.08;78.72
60970;BME280;46841;48.938;9.502;2023-11-21T09:06:33;98125.31;;;10.06;79.75
60970;BME280;46841;48.938;9.502;2023-11-21T09:08:59;98133.66;;;10.21;79.82
60970;BME280;46841;48.938;9.502;2023-11-21T09:11:24;98133.78;;;10.25;79.87
60970;BME280;46841;48.938;9.502;2023-11-21T09:13:52;98135.34;;;10.17;79.23
60970;BME280;46841;48.938;9.502;2023-11-21T09:16:18;98134.28;;;10.09;81.03
60970;BME280;46841;48.938;9.502;2023-11-21T09:18:43;98141.19;;;10.40;79.76
60970;BME280;46841;48.938;9.502;2023-11-21T09:21:08;98146.53;;;10.40;80.06
60970;BME280;46841;48.938;9.502;2023-11-21T09:23:35;98144.97;;;10.51;77.73
60970;BME280;46841;48.938;9.502;2023-11-21T09:26:00;98142.81;;;10.34;76.96
60970;BME280;46841;48.938;9.502;2023-11-21T09:28:27;98144.75;;;10.41;76.43
60970;BME280;46841;48.938;9.502;2023-11-21T09:30:53;98153.69;;;10.43;76.89
60970;BME280;46841;48.938;9.502;2023-11-21T09:33:18;98143.44;;;10.22;77.69
60970;BME280;46841;48.938;9.502;2023-11-21T09:35:44;98144.06;;;10.51;77.30
60970;BME280;46841;48.938;9.502;2023-11-21T09:38:10;98146.03;;;10.60;77.12
60970;BME280;46841;48.938;9.502;2023-11-21T09:40:39;98144.09;;;10.99;75.78
60970;BME280;46841;48.938;9.502;2023-11-21T09:43:16;98144.69;;;11.33;72.98
60970;BME280;46841;48.938;9.502;2023-11-21T09:45:49;98142.25;;;11.47;73.75
60970;BME280;46841;48.938;9.502;2023-11-21T09:48:20;98145.34;;;11.74;72.76
60970;BME280;46841;48.938;9.502;2023-11-21T09:50:47;98144.91;;;11.45;72.77
60970;BME280;46841;48.938;9.502;2023-11-21T09:53:20;98155.03;;;11.15;74.57
60970;BME280;46841;48.938;9.502;2023-11-21T09:55:48;98156.88;;;11.72;72.17
60970;BME280;46841;48.938;9.502;2023-11-21T09:58:14;98150.34;;;12.11;69.39
60970;BME280;46841;48.938;9.502;2023-11-21T10:00:41;98158.72;;;11.74;70.98
60970;BME280;46841;48.938;9.502;2023-11-21T10:03:07;98155.53;;;12.00;70.42
60970;BME280;46841;48.938;9.502;2023-11-21T10:05:34;98154.63;;;11.42;71.34
60970;BME280;46841;48.938;9.502;2023-11-21T10:08:00;98162.16;;;11.14;73.09
60970;BME280;46841;48.938;9.502;2023-11-21T10:10:27;98163.88;;;11.11;73.66
60970;BME280;46841;48.938;9.502;2023-11-21T10:12:56;98168.22;;;10.59;75.83
60970;BME280;46841;48.938;9.502;2023-11-21T10:15:23;98166.09;;;10.41;78.40
60970;BME280;46841;48.938;9.502;2023-11-21T10:17:49;98167.06;;;10.05;79.47
60970;BME280;46841;48.938;9.502;2023-11-21T10:20:15;98170.25;;;9.89;81.01
60970;BME280;46841;48.938;9.502;2023-11-21T10:22:42;98174.63;;;9.87;81.34
60970;BME280;46841;48.938;9.502;2023-11-21T10:25:12;98174.59;;;9.85;81.46
60970;BME280;46841;48.938;9.502;2023-11-21T10:27:40;98171.84;;;9.81;80.88
60970;BME280;46841;48.938;9.502;2023-11-21T10:30:07;98178.38;;;9.95;81.52
60970;BME280;46841;48.938;9.502;2023-11-21T10:32:42;98178.34;;;10.33;80.86
60970;BME280;46841;48.938;9.502;2023-11-21T10:35:09;98179.00;;;10.22;79.05
60970;BME280;46841;48.938;9.502;2023-11-21T10:37:36;98179.69;;;10.14;77.50
60970;BME280;46841;48.938;9.502;2023-11-21T10:40:06;98176.31;;;10.21;76.76
60970;BME280;46841;48.938;9.502;2023-11-21T10:42:33;98172.94;;;10.28;76.81
60970;BME280;46841;48.938;9.502;2023-11-21T10:44:58;98170.28;;;10.30;77.16
60970;BME280;46841;48.938;9.502;2023-11-21T10:47:26;98174.69;;;10.27;76.55
60970;BME280;46841;48.938;9.502;2023-11-21T10:49:51;98174.56;;;10.23;78.60
60970;BME280;46841;48.938;9.502;2023-11-21T10:52:21;98181.28;;;10.45;77.68
60970;BME280;46841;48.938;9.502;2023-11-21T10:54:46;98178.47;;;10.39;77.04
60970;BME280;46841;48.938;9.502;2023-11-21T10:57:17;98171.91;;;10.64;77.08
60970;BME280;46841;48.938;9.502;2023-11-21T10:59:47;98160.81;;;10.88;75.65
60970;BME280;46841;48.938;9.502;2023-11-21T11:02:24;98170.97;;;10.63;75.42
60970;BME280;46841;48.938;9.502;2023-11-21T11:04:58;98173.50;;;11.52;72.52
60970;BME280;46841;48.938;9.502;2023-11-21T11:07:27;98171.78;;;12.14;70.81
60970;BME280;46841;48.938;9.502;2023-11-21T11:09:54;98165.75;;;13.04;68.44
60970;BME280;46841;48.938;9.502;2023-11-21T11:12:20;98171.34;;;13.24;67.75
60970;BME280;46841;48.938;9.502;2023-11-21T11:14:46;98174.41;;;12.80;67.93
60970;BME280;46841;48.938;9.502;2023-11-21T11:17:13;98165.63;;;12.19;69.06
60970;BME280;46841;48.938;9.502;2023-11-21T11:19:39;98172.16;;;11.79;70.63
60970;BME280;46841;48.938;9.502;2023-11-21T11:25:18;98170.72;;;10.96;73.40
60970;BME280;46841;48.938;9.502;2023-11-21T11:28:14;98176.91;;;10.94;74.86
60970;BME280;46841;48.938;9.502;2023-11-21T11:33:42;98174.69;;;10.70;76.27
60970;BME280;46841;48.938;9.502;2023-11-21T11:36:16;98174.69;;;10.26;77.23
60970;BME280;46841;48.938;9.502;2023-11-21T11:38:47;98178.81;;;10.15;78.75
60970;BME280;46841;48.938;9.502;2023-11-21T11:41:26;98182.44;;;10.17;78.60
60970;BME280;46841;48.938;9.502;2023-11-21T11:43:53;98180.66;;;10.17;77.87
60970;BME280;46841;48.938;9.502;2023-11-21T11:46:19;98178.78;;;10.13;79.18
60970;BME280;46841;48.938;9.502;2023-11-21T11:48:48;98186.56;;;10.43;78.84
60970;BME280;46841;48.938;9.502;2023-11-21T11:51:14;98179.34;;;10.36;78.59
60970;BME280;46841;48.938;9.502;2023-11-21T11:53:43;98180.22;;;10.35;80.07
60970;BME280;46841;48.938;9.502;2023-11-21T11:56:30;98181.22;;;10.02;80.91
60970;BME280;46841;48.938;9.502;2023-11-21T11:59:01;98181.81;;;9.89;81.59
60970;BME280;46841;48.938;9.502;2023-11-21T12:01:34;98182.75;;;9.54;82.90
60970;BME280;46841;48.938;9.502;2023-11-21T12:06:51;98190.03;;;9.62;83.14
60970;BME280;46841;48.938;9.502;2023-11-21T12:09:20;98194.78;;;9.38;84.02
60970;BME280;46841;48.938;9.502;2023-11-21T12:11:47;98199.72;;;9.22;84.26
60970;BME280;46841;48.938;9.502;2023-11-21T12:14:14;98195.50;;;8.96;85.38
60970;BME280;46841;48.938;9.502;2023-11-21T12:16:40;98205.25;;;8.97;85.48
60970;BME280;46841;48.938;9.502;2023-11-21T12:19:06;98205.03;;;9.22;85.39
60970;BME280;46841;48.938;9.502;2023-11-21T12:21:32;98200.28;;;9.44;84.88
60970;BME280;46841;48.938;9.502;2023-11-21T12:23:58;98195.56;;;9.70;84.66
60970;BME280;46841;48.938;9.502;2023-11-21T12:26:24;98197.44;;;10.12;82.39
60970;BME280;46841;48.938;9.502;2023-11-21T12:28:53;98203.25;;;10.33;80.90
60970;BME280;46841;48.938;9.502;2023-11-21T12:31:24;98195.06;;;10.68;80.11
60970;BME280;46841;48.938;9.502;2023-11-21T12:33:50;98186.91;;;11.05;79.70
60970;BME280;46841;48.938;9.502;2023-11-21T12:36:16;98202.03;;;11.07;76.99
60970;BME280;46841;48.938;9.502;2023-11-21T12:38:42;98193.13;;;11.04;77.65
60970;BME280;46841;48.938;9.502;2023-11-21T12:41:09;98214.69;;;10.70;76.92
60970;BME280;46841;48.938;9.502;2023-11-21T12:43:35;98208.47;;;10.27;78.73
60970;BME280;46841;48.938;9.502;2023-11-21T12:46:11;98219.69;;;10.14;80.55
60970;BME280;46841;48.938;9.502;2023-11-21T12:48:37;98216.66;;;9.97;80.83
60970;BME280;46841;48.938;9.502;2023-11-21T12:51:08;98213.66;;;9.83;82.41
60970;BME280;46841;48.938;9.502;2023-11-21T12:53:35;98213.69;;;9.86;81.88
60970;BME280;46841;48.938;9.502;2023-11-21T12:56:07;98214.13;;;9.67;82.70
60970;BME280;46841;48.938;9.502;2023-11-21T12:58:38;98223.78;;;9.62;82.85
60970;BME280;46841;48.938;9.502;2023-11-21T13:01:07;98223.88;;;9.65;82.46
60970;BME280;46841;48.938;9.502;2023-11-21T13:03:40;98220.66;;;9.43;83.29
60970;BME280;46841;48.938;9.502;2023-11-21T13:06:08;98225.97;;;9.43;83.36
60970;BME280;46841;48.938;9.502;2023-11-21T13:08:33;98224.03;;;9.36;84.04
60970;BME280;46841;48.938;9.502;2023-11-21T13:11:00;98221.22;;;9.30;84.19
60970;BME280;46841;48.938;9.502;2023-11-21T13:13:28;98222.44;;;9.10;84.53
60970;BME280;46841;48.938;9.502;2023-11-21T13:15:56;98228.63;;;9.09;86.48